createdAt,value
2022-12-01T00:01:13.178Z,46.67
2022-12-01T00:03:41.176Z,45.97
2022-12-01T00:06:11.615Z,44.93
2022-12-01T00:08:40.574Z,43.50
2022-12-01T00:11:09.839Z,43.73
2022-12-01T00:13:38.008Z,44.43
2022-12-01T00:16:12.222Z,44.83
2022-12-01T00:18:40.193Z,44.00
2022-12-01T00:21:14.512Z,44.33
2022-12-01T00:23:47.163Z,43.77
2022-12-01T00:26:15.201Z,43.63
2022-12-01T00:28:43.073Z,44.90
2022-12-01T00:31:11.093Z,46.00
2022-12-01T00:33:39.170Z,46.27
2022-12-01T00:36:07.681Z,43.67
2022-12-01T00:38:35.939Z,45.27
2022-12-01T00:41:05.594Z,42.57
2022-12-01T00:43:33.296Z,44.93
2022-12-01T00:46:00.931Z,44.73
2022-12-01T00:48:28.562Z,43.87
2022-12-01T00:50:56.712Z,44.10
2022-12-01T00:53:25.397Z,43.30
2022-12-01T00:55:54.296Z,42.37
2022-12-01T00:58:24.189Z,42.37
2022-12-01T01:00:58.534Z,42.67
2022-12-01T01:03:26.394Z,42.03
2022-12-01T01:05:54.033Z,43.87
2022-12-01T01:08:21.823Z,44.80
2022-12-01T01:10:49.824Z,45.17
2022-12-01T01:13:17.466Z,43.43
2022-12-01T01:15:46.509Z,41.30
2022-12-01T01:18:14.109Z,45.73
2022-12-01T01:20:41.693Z,43.93
2022-12-01T01:23:09.364Z,42.63
2022-12-01T01:25:36.995Z,41.23
2022-12-01T01:28:04.850Z,41.73
2022-12-01T01:30:32.562Z,42.67
2022-12-01T01:33:01.723Z,41.00
2022-12-01T01:35:29.294Z,43.23
2022-12-01T01:37:57.333Z,43.67
2022-12-01T01:40:24.995Z,42.30
2022-12-01T01:42:52.634Z,42.93
2022-12-01T01:45:26.080Z,40.00
2022-12-01T01:47:56.455Z,45.13
2022-12-01T01:50:27.723Z,42.77
2022-12-01T01:53:00.239Z,43.83
2022-12-01T01:55:29.463Z,43.50
2022-12-01T01:57:57.855Z,42.57
2022-12-01T02:00:25.755Z,44.67
2022-12-01T02:02:55.208Z,46.23
2022-12-01T02:05:27.697Z,45.77
2022-12-01T02:07:58.270Z,44.53
2022-12-01T02:10:34.153Z,41.80
2022-12-01T02:13:12.659Z,44.40
2022-12-01T02:15:48.696Z,43.50
2022-12-01T02:18:27.794Z,43.60
2022-12-01T02:21:35.946Z,43.53
2022-12-01T02:24:38.840Z,43.63
2022-12-01T02:27:11.819Z,44.37
2022-12-01T02:30:05.851Z,44.97
2022-12-01T02:32:48.107Z,43.23
2022-12-01T02:35:23.117Z,42.73
2022-12-01T02:38:02.336Z,43.33
2022-12-01T02:40:33.940Z,43.47
2022-12-01T02:43:07.601Z,42.97
2022-12-01T02:45:41.822Z,41.23
2022-12-01T02:48:16.003Z,43.53
2022-12-01T02:50:46.803Z,42.67
2022-12-01T02:53:19.305Z,44.40
2022-12-01T02:55:52.581Z,44.93
2022-12-01T02:58:21.029Z,42.40
2022-12-01T03:01:12.717Z,43.37
2022-12-01T03:04:00.446Z,42.67
2022-12-01T03:06:41.725Z,44.83
2022-12-01T03:09:15.786Z,43.67
2022-12-01T03:11:51.546Z,43.53
2022-12-01T03:14:30.315Z,43.40
2022-12-01T03:17:00.394Z,44.07
2022-12-01T03:19:36.463Z,45.47
2022-12-01T03:22:09.840Z,45.30
2022-12-01T03:24:39.832Z,45.40
2022-12-01T03:27:09.844Z,45.93
2022-12-01T03:29:41.323Z,45.97
2022-12-01T03:32:15.591Z,44.60
2022-12-01T03:34:49.619Z,46.40
2022-12-01T03:37:22.915Z,46.33
2022-12-01T03:39:59.766Z,43.57
2022-12-01T03:42:32.860Z,45.93
2022-12-01T03:45:05.933Z,44.70
2022-12-01T03:47:37.445Z,44.47
2022-12-01T03:50:09.776Z,43.70
2022-12-01T03:52:49.659Z,47.20
2022-12-01T03:55:21.820Z,48.87
2022-12-01T03:57:55.740Z,46.13
2022-12-01T04:00:23.935Z,44.20
2022-12-01T04:02:56.189Z,47.43
2022-12-01T04:05:25.896Z,46.77
2022-12-01T04:07:53.816Z,46.47
2022-12-01T04:10:21.684Z,44.77
2022-12-01T04:12:48.285Z,44.43
2022-12-01T04:15:16.716Z,46.97
2022-12-01T04:17:45.554Z,46.13
2022-12-01T04:20:15.457Z,45.80
2022-12-01T04:22:45.059Z,48.10
2022-12-01T04:25:12.718Z,47.93
2022-12-01T04:27:40.578Z,48.90
2022-12-01T04:30:09.961Z,47.77
2022-12-01T04:32:39.415Z,46.90
2022-12-01T04:35:07.751Z,47.30
2022-12-01T04:37:35.458Z,45.97
2022-12-01T04:40:05.736Z,45.43
2022-12-01T04:42:33.356Z,46.23
2022-12-01T04:45:00.971Z,45.90
2022-12-01T04:47:28.745Z,47.50
2022-12-01T04:49:56.338Z,47.97
2022-12-01T04:52:23.982Z,46.70
2022-12-01T04:54:51.569Z,45.47
2022-12-01T04:57:20.496Z,46.60
2022-12-01T04:59:48.508Z,47.33
2022-12-01T05:02:16.811Z,45.03
2022-12-01T05:04:47.926Z,46.50
2022-12-01T05:07:15.586Z,42.23
2022-12-01T05:09:43.224Z,46.67
2022-12-01T05:12:10.821Z,45.17
2022-12-01T05:14:39.805Z,46.40
2022-12-01T05:17:07.397Z,43.40
2022-12-01T05:19:52.549Z,43.40
2022-12-01T05:22:31.426Z,43.10
2022-12-01T05:25:08.249Z,44.30
2022-12-01T05:27:35.816Z,43.07
2022-12-01T05:30:05.854Z,41.90
2022-12-01T05:32:33.516Z,43.43
2022-12-01T05:35:01.090Z,43.57
2022-12-01T05:37:32.191Z,44.70
2022-12-01T05:39:59.852Z,45.37
2022-12-01T05:42:27.544Z,41.87
2022-12-01T05:44:55.126Z,42.87
2022-12-01T05:47:24.071Z,45.03
2022-12-01T05:49:51.725Z,44.53
2022-12-01T05:52:19.383Z,46.87
2022-12-01T05:54:46.966Z,45.07
2022-12-01T05:57:14.562Z,47.07
2022-12-01T05:59:42.131Z,44.00
2022-12-01T06:02:09.736Z,44.50
2022-12-01T06:04:38.691Z,47.13
2022-12-01T06:07:06.301Z,47.03
2022-12-01T06:09:33.961Z,45.23
2022-12-01T06:12:01.588Z,46.73
2022-12-01T06:14:29.249Z,48.03
2022-12-01T06:16:56.941Z,46.03
2022-12-01T06:19:24.562Z,45.60
2022-12-01T06:21:53.496Z,47.30
2022-12-01T06:24:21.065Z,43.83
2022-12-01T06:26:48.656Z,46.47
2022-12-01T06:29:16.670Z,44.87
2022-12-01T06:31:44.328Z,44.50
2022-12-01T06:34:12.364Z,44.73
2022-12-01T06:36:39.964Z,46.83
2022-12-01T06:39:10.203Z,48.47
2022-12-01T06:41:37.842Z,46.20
2022-12-01T06:44:05.776Z,44.97
2022-12-01T06:46:33.424Z,47.33
2022-12-01T06:49:01.163Z,44.10
2022-12-01T06:51:28.813Z,42.47
2022-12-01T06:54:00.815Z,45.43
2022-12-01T06:56:32.800Z,43.63
2022-12-01T06:59:00.926Z,45.03
2022-12-01T07:01:28.946Z,44.93
2022-12-01T07:03:56.860Z,43.33
2022-12-01T07:06:24.499Z,41.87
2022-12-01T07:08:53.396Z,45.87
2022-12-01T07:11:21.037Z,44.37
2022-12-01T07:13:50.833Z,44.27
2022-12-01T07:16:18.472Z,44.63
2022-12-01T07:18:46.122Z,42.87
2022-12-01T07:21:15.827Z,44.47
2022-12-01T07:23:43.780Z,43.23
2022-12-01T07:26:13.238Z,43.23
2022-12-01T07:28:41.077Z,42.43
2022-12-01T07:31:13.364Z,40.97
2022-12-01T07:33:41.397Z,43.40
2022-12-01T07:36:10.865Z,42.13
2022-12-01T07:38:39.803Z,41.87
2022-12-01T07:41:09.332Z,42.93
2022-12-01T07:43:36.957Z,43.60
2022-12-01T07:46:06.743Z,43.70
2022-12-01T07:48:37.130Z,43.77
2022-12-01T07:51:05.500Z,44.13
2022-12-01T07:53:33.399Z,45.07
2022-12-01T07:56:05.709Z,42.93
2022-12-01T07:58:35.927Z,44.37
2022-12-01T08:01:07.697Z,43.57
2022-12-01T08:03:37.029Z,42.23
2022-12-01T08:06:06.165Z,42.77
2022-12-01T08:08:35.596Z,44.77
2022-12-01T08:11:05.612Z,44.57
2022-12-01T08:13:33.336Z,43.53
2022-12-01T08:16:04.599Z,44.87
2022-12-01T08:18:32.258Z,43.83
2022-12-01T08:21:01.273Z,44.63
2022-12-01T08:23:28.885Z,44.73
2022-12-01T08:25:57.533Z,42.43
2022-12-01T08:28:25.116Z,42.53
2022-12-01T08:30:52.745Z,43.43
2022-12-01T08:33:20.341Z,43.30
2022-12-01T08:35:47.942Z,45.77
2022-12-01T08:38:17.211Z,44.47
2022-12-01T08:40:44.803Z,43.27
2022-12-01T08:43:28.345Z,45.30
2022-12-01T08:46:00.456Z,42.47
2022-12-01T08:48:29.962Z,43.70
2022-12-01T08:51:06.485Z,44.20
2022-12-01T08:53:39.188Z,44.00
2022-12-01T08:56:13.989Z,43.70
2022-12-01T08:58:42.024Z,41.63
2022-12-01T09:01:11.552Z,40.77
2022-12-01T09:03:40.502Z,42.03
2022-12-01T09:06:10.618Z,40.53
2022-12-01T09:08:40.058Z,41.90
2022-12-01T09:11:09.470Z,42.33
2022-12-01T09:13:39.512Z,42.63
2022-12-01T09:16:09.870Z,40.37
2022-12-01T09:18:37.874Z,40.20
2022-12-01T09:21:12.257Z,40.80
2022-12-01T09:23:41.516Z,42.07
2022-12-01T09:26:13.525Z,40.90
2022-12-01T09:28:41.688Z,41.97
2022-12-01T09:31:11.075Z,43.13
2022-12-01T09:33:39.152Z,43.17
2022-12-01T09:36:09.317Z,45.30
2022-12-01T09:38:38.285Z,43.00
2022-12-01T09:41:18.715Z,43.80
2022-12-01T09:43:51.684Z,43.10
2022-12-01T09:46:22.936Z,42.80
2022-12-01T09:48:53.674Z,42.10
2022-12-01T09:51:23.610Z,43.47
2022-12-01T09:53:53.224Z,44.87
2022-12-01T09:56:24.569Z,41.73
2022-12-01T09:58:55.749Z,43.03
2022-12-01T10:01:32.670Z,43.53
2022-12-01T10:04:07.020Z,41.53
2022-12-01T10:06:42.467Z,42.70
2022-12-01T10:09:19.976Z,43.03
2022-12-01T10:11:51.901Z,40.47
2022-12-01T10:14:21.122Z,39.93
2022-12-01T10:17:00.255Z,42.90
2022-12-01T10:19:34.509Z,43.57
2022-12-01T10:22:16.912Z,42.30
2022-12-01T10:24:55.146Z,43.53
2022-12-01T10:27:39.776Z,43.77
2022-12-01T10:30:11.463Z,42.07
2022-12-01T10:32:47.200Z,44.07
2022-12-01T10:35:17.647Z,41.17
2022-12-01T10:37:47.487Z,43.97
2022-12-01T10:40:17.238Z,40.53
2022-12-01T10:42:48.411Z,42.80
2022-12-01T10:45:19.576Z,39.77
2022-12-01T10:48:10.790Z,41.70
2022-12-01T10:50:38.565Z,42.07
2022-12-01T10:53:06.302Z,41.33
2022-12-01T10:55:37.464Z,40.50
2022-12-01T10:58:16.711Z,41.17
2022-12-01T11:01:01.168Z,40.30
2022-12-01T11:03:31.296Z,43.90
2022-12-01T11:06:01.448Z,41.87
2022-12-01T11:08:37.129Z,40.47
2022-12-01T11:11:05.636Z,42.30
2022-12-01T11:13:36.409Z,41.03
2022-12-01T11:16:07.135Z,40.93
2022-12-01T11:18:36.271Z,43.13
2022-12-01T11:21:13.431Z,40.47
2022-12-01T11:23:47.206Z,43.87
2022-12-01T11:26:17.861Z,44.57
2022-12-01T11:28:55.204Z,43.90
2022-12-01T11:31:28.021Z,41.20
2022-12-01T11:33:57.312Z,43.27
2022-12-01T11:36:33.266Z,45.27
2022-12-01T11:39:02.980Z,41.80
2022-12-01T11:41:35.023Z,39.00
2022-12-01T11:44:12.785Z,40.80
2022-12-01T11:46:55.500Z,39.63
2022-12-01T11:49:26.810Z,41.93
2022-12-01T11:51:54.661Z,39.27
2022-12-01T11:54:24.576Z,38.10
2022-12-01T11:59:42.902Z,35.20
2022-12-01T12:02:23.325Z,34.27
2022-12-01T12:05:27.529Z,34.63
2022-12-01T12:08:04.922Z,34.03
2022-12-01T12:10:49.707Z,35.57
2022-12-01T12:13:44.202Z,32.53
2022-12-01T12:16:19.492Z,36.67
2022-12-01T12:19:02.655Z,33.13
2022-12-01T12:21:34.481Z,33.23
2022-12-01T12:24:23.881Z,31.97
2022-12-01T12:27:00.832Z,30.60
2022-12-01T12:29:40.650Z,31.77
2022-12-01T12:32:27.150Z,32.10
2022-12-01T12:35:03.003Z,32.07
2022-12-01T12:37:41.901Z,29.83
2022-12-01T12:40:27.572Z,27.73
2022-12-01T12:43:09.387Z,28.07
2022-12-01T12:45:49.751Z,28.00
2022-12-01T12:48:28.639Z,30.67
2022-12-01T12:51:04.395Z,25.33
2022-12-01T12:53:40.341Z,23.77
2022-12-01T12:56:13.192Z,26.00
2022-12-01T12:58:55.876Z,26.80
2022-12-01T13:01:27.422Z,25.47
2022-12-01T13:04:02.139Z,27.37
2022-12-01T13:06:36.207Z,26.00
2022-12-01T13:09:09.576Z,27.07
2022-12-01T13:11:43.716Z,25.33
2022-12-01T13:14:18.979Z,25.90
2022-12-01T13:16:49.695Z,26.67
2022-12-01T13:19:25.045Z,23.40
2022-12-01T13:21:54.456Z,23.00
2022-12-01T13:24:24.900Z,23.10
2022-12-01T13:26:57.428Z,23.43
2022-12-01T13:29:26.847Z,22.87
2022-12-01T13:31:55.917Z,23.63
2022-12-01T13:34:27.688Z,25.70
2022-12-01T13:36:57.123Z,23.47
2022-12-01T13:39:27.857Z,24.47
2022-12-01T13:42:01.587Z,25.03
2022-12-01T13:44:33.467Z,25.23
2022-12-01T13:47:04.778Z,22.70
2022-12-01T13:49:41.961Z,23.50
2022-12-01T13:52:30.200Z,23.57
2022-12-01T13:55:03.350Z,22.50
2022-12-01T13:57:33.232Z,24.20
2022-12-01T14:00:21.286Z,23.77
2022-12-01T14:03:26.659Z,22.03
2022-12-01T14:06:06.579Z,16.83
2022-12-01T14:08:37.613Z,22.27
2022-12-01T14:11:09.140Z,22.40
2022-12-01T14:13:47.655Z,18.57
2022-12-01T14:16:16.353Z,20.23
2022-12-01T14:18:50.241Z,20.67
2022-12-01T14:21:43.458Z,18.63
2022-12-01T14:24:23.064Z,20.27
2022-12-01T14:26:52.513Z,19.57
2022-12-01T14:29:29.428Z,20.40
2022-12-01T14:32:21.684Z,20.87
2022-12-01T14:35:11.639Z,19.47
2022-12-01T14:37:47.223Z,18.80
2022-12-01T14:40:24.462Z,18.07
2022-12-01T14:43:14.272Z,19.10
2022-12-01T14:45:48.585Z,18.23
2022-12-01T14:48:19.657Z,18.57
2022-12-01T14:50:50.299Z,17.50
2022-12-01T14:53:26.755Z,18.53
2022-12-01T14:55:57.408Z,17.10
2022-12-01T14:58:29.701Z,17.43
2022-12-01T15:01:05.721Z,17.33
2022-12-01T15:03:38.049Z,16.17
2022-12-01T15:06:06.353Z,16.50
2022-12-01T15:08:45.750Z,16.00
2022-12-01T15:11:22.956Z,16.17
2022-12-01T15:13:53.670Z,16.57
2022-12-01T15:16:24.143Z,17.63
2022-12-01T15:18:52.587Z,18.57
2022-12-01T15:21:23.472Z,15.53
2022-12-01T15:24:01.131Z,17.60
2022-12-01T15:26:31.685Z,16.93
2022-12-01T15:29:23.211Z,16.57
2022-12-01T15:31:53.372Z,19.70
2022-12-01T15:34:24.710Z,16.77
2022-12-01T15:36:53.883Z,18.30
2022-12-01T15:39:30.215Z,17.30
2022-12-01T15:41:58.509Z,16.43
2022-12-01T15:44:29.809Z,18.17
2022-12-01T15:46:57.561Z,16.20
2022-12-01T15:49:29.466Z,17.70
2022-12-01T15:52:09.949Z,19.57
2022-12-01T15:54:39.758Z,19.33
2022-12-01T15:57:07.895Z,16.63
2022-12-01T15:59:39.542Z,17.93
2022-12-01T16:02:17.071Z,17.73
2022-12-01T16:04:44.984Z,16.90
2022-12-01T16:07:14.124Z,18.47
2022-12-01T16:09:45.028Z,17.23
2022-12-01T16:12:26.488Z,17.33
2022-12-01T16:14:57.563Z,16.00
2022-12-01T16:17:26.331Z,17.13
2022-12-01T16:20:17.310Z,17.73
2022-12-01T16:22:46.311Z,19.00
2022-12-01T16:25:23.158Z,19.03
2022-12-01T16:27:58.188Z,18.73
2022-12-01T16:30:30.086Z,20.03
2022-12-01T16:33:15.084Z,21.43
2022-12-01T16:35:42.865Z,22.23
2022-12-01T16:38:16.249Z,21.80
2022-12-01T16:40:45.536Z,21.70
2022-12-01T16:43:16.566Z,21.40
2022-12-01T16:45:44.837Z,23.47
2022-12-01T16:48:12.972Z,20.53
2022-12-01T16:50:41.306Z,21.77
2022-12-01T16:53:10.408Z,24.33
2022-12-01T16:55:42.570Z,21.33
2022-12-01T16:58:11.947Z,21.87
2022-12-01T17:00:39.770Z,25.50
2022-12-01T17:03:09.004Z,25.93
2022-12-01T17:05:36.811Z,25.70
2022-12-01T17:08:04.928Z,24.50
2022-12-01T17:10:32.704Z,25.10
2022-12-01T17:13:00.491Z,26.03
2022-12-01T17:15:29.649Z,25.90
2022-12-01T17:17:57.426Z,26.17
2022-12-01T17:20:25.612Z,26.73
2022-12-01T17:22:53.375Z,28.30
2022-12-01T17:25:21.079Z,27.07
2022-12-01T17:27:48.822Z,30.10
2022-12-01T17:30:16.761Z,27.93
2022-12-01T17:32:46.486Z,28.10
2022-12-01T17:35:14.444Z,31.40
2022-12-01T17:37:42.691Z,30.43
2022-12-01T17:40:14.763Z,30.33
2022-12-01T17:42:46.959Z,30.80
2022-12-01T17:45:16.432Z,32.27
2022-12-01T17:47:45.631Z,30.40
2022-12-01T17:50:13.325Z,31.13
2022-12-01T17:52:41.143Z,32.83
2022-12-01T17:55:10.218Z,31.53
2022-12-01T17:57:38.240Z,33.27
2022-12-01T18:00:07.324Z,32.70
2022-12-01T18:02:35.103Z,31.77
2022-12-01T18:05:04.694Z,33.67
2022-12-01T18:07:32.685Z,30.53
2022-12-01T18:10:00.561Z,31.67
2022-12-01T18:12:28.333Z,33.23
2022-12-01T18:14:56.096Z,34.10
2022-12-01T18:17:23.839Z,33.67
2022-12-01T18:19:51.521Z,32.93
2022-12-01T18:22:20.637Z,34.30
2022-12-01T18:24:48.776Z,34.83
2022-12-01T18:27:16.770Z,30.67
2022-12-01T18:29:44.522Z,32.70
2022-12-01T18:32:12.227Z,34.07
2022-12-01T18:34:39.980Z,34.23
2022-12-01T18:37:07.776Z,32.93
2022-12-01T18:39:36.892Z,32.33
2022-12-01T18:42:04.889Z,32.07
2022-12-01T18:44:32.842Z,30.93
2022-12-01T18:47:02.780Z,29.60
2022-12-01T18:49:30.712Z,30.70
2022-12-01T18:51:59.807Z,32.63
2022-12-01T18:54:27.648Z,30.20
2022-12-01T18:56:58.879Z,32.27
2022-12-01T18:59:26.909Z,29.60
2022-12-01T19:01:54.986Z,29.63
2022-12-01T19:04:22.749Z,30.43
2022-12-01T19:06:50.518Z,31.30
2022-12-01T19:09:18.571Z,29.97
2022-12-01T19:11:46.394Z,30.33
2022-12-01T19:14:17.501Z,31.50
2022-12-01T19:16:45.639Z,30.37
2022-12-01T19:19:13.593Z,30.63
2022-12-01T19:21:41.531Z,31.57
2022-12-01T19:24:09.538Z,30.43
2022-12-01T19:26:37.422Z,30.13
2022-12-01T19:29:05.492Z,32.10
2022-12-01T19:31:34.951Z,33.17
2022-12-01T19:34:03.673Z,32.50
2022-12-01T19:36:31.408Z,33.77
2022-12-01T19:39:00.580Z,31.73
2022-12-01T19:41:30.356Z,30.57
2022-12-01T19:43:59.488Z,29.70
2022-12-01T19:46:28.974Z,31.73
2022-12-01T19:49:00.348Z,29.87
2022-12-01T19:51:30.636Z,30.23
2022-12-01T19:53:59.113Z,30.30
2022-12-01T19:56:27.327Z,29.07
2022-12-01T19:58:55.200Z,32.80
2022-12-01T20:01:23.007Z,29.27
2022-12-01T20:03:52.756Z,28.90
2022-12-01T20:06:24.071Z,28.13
2022-12-01T20:08:52.433Z,28.30
2022-12-01T20:11:20.712Z,29.83
2022-12-01T20:13:49.048Z,27.70
2022-12-01T20:16:19.033Z,26.87
2022-12-01T20:18:47.149Z,24.83
2022-12-01T20:21:17.550Z,26.13
2022-12-01T20:23:49.202Z,25.43
2022-12-01T20:26:18.870Z,26.57
2022-12-01T20:28:47.991Z,23.87
2022-12-01T20:31:19.366Z,27.50
2022-12-01T20:33:47.945Z,24.37
2022-12-01T20:36:16.028Z,26.93
2022-12-01T20:38:43.941Z,24.37
2022-12-01T20:41:13.901Z,26.03
2022-12-01T20:43:41.799Z,25.63
2022-12-01T20:46:09.659Z,26.40
2022-12-01T20:48:37.385Z,25.43
2022-12-01T20:51:06.919Z,25.90
2022-12-01T20:53:35.060Z,26.60
2022-12-01T20:56:03.850Z,25.47
2022-12-01T20:58:37.204Z,26.27
2022-12-01T21:01:09.304Z,25.53
2022-12-01T21:03:39.426Z,24.57
2022-12-01T21:06:07.719Z,26.27
2022-12-01T21:08:38.509Z,26.80
2022-12-01T21:11:08.544Z,26.73
2022-12-01T21:13:39.334Z,28.10
2022-12-01T21:16:14.201Z,27.93
2022-12-01T21:18:54.840Z,27.40
2022-12-01T21:21:25.611Z,28.17
2022-12-01T21:24:10.822Z,26.60
2022-12-01T21:26:40.875Z,26.93
2022-12-01T21:29:18.800Z,27.23
2022-12-01T21:31:46.906Z,26.07
2022-12-01T21:34:19.334Z,26.00
2022-12-01T21:36:48.797Z,27.27
2022-12-01T21:39:18.667Z,26.60
2022-12-01T21:41:46.531Z,24.60
2022-12-01T21:44:18.018Z,25.00
2022-12-01T21:46:46.250Z,23.97
2022-12-01T21:49:16.297Z,24.87
2022-12-01T21:51:44.705Z,24.20
2022-12-01T21:54:16.674Z,23.43
2022-12-01T21:56:44.614Z,22.93
2022-12-01T21:59:20.058Z,25.30
2022-12-01T22:01:48.613Z,26.37
2022-12-01T22:04:20.298Z,24.57
2022-12-01T22:06:49.786Z,24.63
2022-12-01T22:09:26.391Z,26.00
2022-12-01T22:11:55.680Z,24.97
2022-12-01T22:14:28.645Z,24.50
2022-12-01T22:16:58.031Z,26.93
2022-12-01T22:19:29.872Z,25.33
2022-12-01T22:22:03.166Z,25.37
2022-12-01T22:24:38.975Z,26.17
2022-12-01T22:27:26.812Z,25.10
2022-12-01T22:29:59.456Z,25.57
2022-12-01T22:32:38.907Z,26.27
2022-12-01T22:35:23.145Z,25.40
2022-12-01T22:37:52.904Z,26.67
2022-12-01T22:40:41.192Z,27.30
2022-12-01T22:43:23.992Z,24.77
2022-12-01T22:46:17.660Z,25.53
2022-12-01T22:48:47.322Z,24.90
2022-12-01T22:51:27.655Z,25.23
2022-12-01T22:54:01.048Z,24.33
2022-12-01T22:56:32.721Z,24.47
2022-12-01T22:59:00.434Z,25.80
2022-12-01T23:01:31.356Z,26.33
2022-12-01T23:04:14.313Z,22.43
2022-12-01T23:06:52.037Z,23.23
2022-12-01T23:09:20.305Z,23.13
2022-12-01T23:11:52.000Z,24.40
2022-12-01T23:14:23.131Z,24.80
2022-12-01T23:16:54.314Z,23.97
2022-12-01T23:19:21.933Z,24.23
2022-12-01T23:21:49.517Z,24.40
2022-12-01T23:24:19.292Z,24.47
2022-12-01T23:26:47.513Z,22.13
2022-12-01T23:29:15.142Z,21.30
2022-12-01T23:31:42.916Z,20.63
2022-12-01T23:34:16.211Z,19.73
2022-12-01T23:36:44.171Z,20.57
2022-12-01T23:39:13.879Z,20.60
2022-12-01T23:41:43.865Z,22.23
2022-12-01T23:44:18.412Z,21.63
2022-12-01T23:46:47.038Z,21.93
2022-12-01T23:49:19.995Z,24.27
2022-12-01T23:51:50.747Z,23.20
2022-12-01T23:54:22.072Z,23.37
2022-12-01T23:56:59.047Z,22.03
2022-12-01T23:59:27.184Z,23.80
